Time;durP1;ratioP1;P1;durP2;ratioP2;P2;SDS_P1;SDS_P2;PMS_P1;PMS_P2;Temp;Humidity;BMP_temperature;BMP_pressure;BME280_temperature;BME280_humidity;BME280_pressure;Samples;Min_cycle;Max_cycle;Signal;HPM_P1;HPM_P2
2022/04/21 00:02:18;;;;;;;18.85;6.65;;;16.10;54.00;;;;;;5046657;28;20499;-61
2022/04/21 00:04:43;;;;;;;22.67;6.15;;;16.10;54.00;;;;;;5081042;28;20488;-61
2022/04/21 00:07:09;;;;;;;16.70;6.32;;;16.10;54.00;;;;;;5081423;28;20028;-62
2022/04/21 00:09:34;;;;;;;14.93;6.65;;;16.10;54.10;;;;;;5082273;28;20522;-61
2022/04/21 00:12:00;;;;;;;17.75;7.22;;;16.00;54.00;;;;;;5079820;28;20043;-60
2022/04/21 00:14:25;;;;;;;15.98;5.28;;;16.10;54.10;;;;;;5064894;28;20039;-61
2022/04/21 00:16:51;;;;;;;13.45;5.90;;;16.00;54.10;;;;;;5083848;28;20056;-60
2022/04/21 00:19:16;;;;;;;17.17;6.22;;;16.00;54.10;;;;;;5084649;28;20028;-61
2022/04/21 00:24:26;;;;;;;14.43;6.28;;;16.00;54.10;;;;;;5066741;28;20043;-61
2022/04/21 00:26:51;;;;;;;18.40;5.82;;;15.90;54.00;;;;;;5080840;28;20028;-61
2022/04/21 00:29:17;;;;;;;15.55;6.43;;;15.90;54.10;;;;;;5081867;28;20026;-61
2022/04/21 00:31:43;;;;;;;13.43;6.65;;;15.80;54.00;;;;;;5063236;28;20588;-61
2022/04/21 00:34:09;;;;;;;13.70;6.18;;;15.80;54.10;;;;;;5079726;28;20104;-61
2022/04/21 00:36:35;;;;;;;13.70;6.47;;;15.80;54.20;;;;;;5063949;28;20454;-61
2022/04/21 00:39:00;;;;;;;13.48;5.82;;;15.80;54.20;;;;;;5083316;28;20028;-61
2022/04/21 00:41:26;;;;;;;9.38;5.72;;;15.70;54.30;;;;;;5083777;28;20109;-60
2022/04/21 00:43:51;;;;;;;15.75;5.80;;;15.70;54.30;;;;;;5047230;28;20533;-61
2022/04/21 00:46:21;;;;;;;11.05;6.10;;;15.70;54.30;;;;;;5080740;28;20572;-61
2022/04/21 00:48:47;;;;;;;11.70;5.70;;;15.70;54.40;;;;;;5083091;28;20029;-60
2022/04/21 00:51:12;;;;;;;12.75;5.80;;;15.60;54.40;;;;;;5063440;28;20098;-61
2022/04/21 00:53:38;;;;;;;9.60;5.72;;;15.60;54.30;;;;;;5080744;28;20063;-62
2022/04/21 00:56:05;;;;;;;12.73;6.00;;;15.60;54.30;;;;;;5065155;28;20078;-61
2022/04/21 00:58:31;;;;;;;12.27;5.80;;;15.60;54.40;;;;;;5047411;28;20121;-60
2022/04/21 01:00:56;;;;;;;10.05;5.68;;;15.50;54.30;;;;;;5066182;28;20148;-61
2022/04/21 01:03:22;;;;;;;8.75;5.60;;;15.50;54.50;;;;;;5066317;28;20060;-60
2022/04/21 01:05:49;;;;;;;13.00;5.88;;;15.50;54.50;;;;;;5064742;28;20036;-61
2022/04/21 01:08:14;;;;;;;11.57;5.32;;;15.40;54.50;;;;;;5082208;28;20012;-61
2022/04/21 01:10:43;;;;;;;12.73;5.53;;;15.40;54.50;;;;;;5079938;28;20335;-61
2022/04/21 01:13:09;;;;;;;8.27;5.50;;;15.40;54.60;;;;;;5081154;28;20400;-60
2022/04/21 01:15:35;;;;;;;9.95;5.60;;;15.40;54.60;;;;;;5081011;28;20024;-61
2022/04/21 01:18:01;;;;;;;7.63;5.72;;;15.30;54.50;;;;;;5080891;28;20413;-61
2022/04/21 01:20:26;;;;;;;12.02;5.15;;;15.30;54.70;;;;;;5062793;28;20038;-61
2022/04/21 01:22:52;;;;;;;12.88;5.28;;;15.10;54.50;;;;;;5063010;28;20036;-61
2022/04/21 01:25:19;;;;;;;10.63;5.15;;;15.30;54.70;;;;;;5063756;28;20052;-61
2022/04/21 01:27:45;;;;;;;10.55;5.25;;;15.30;54.70;;;;;;5063050;28;20027;-61
2022/04/21 01:30:11;;;;;;;14.15;5.43;;;15.20;54.80;;;;;;5063535;28;20034;-60
2022/04/21 01:32:37;;;;;;;11.13;5.80;;;15.20;54.90;;;;;;5080894;28;20132;-61
2022/04/21 01:35:07;;;;;;;11.68;5.30;;;15.20;54.90;;;;;;5078954;28;20024;-60
2022/04/21 01:43:01;;;;;;;12.02;4.78;;;15.10;54.80;;;;;;5084619;28;20351;-61
2022/04/21 01:45:26;;;;;;;9.60;4.60;;;15.00;54.80;;;;;;5087100;28;20048;-61
2022/04/21 01:47:52;;;;;;;7.07;4.85;;;15.00;55.00;;;;;;5086476;28;20423;-61
2022/04/21 01:50:17;;;;;;;8.40;5.30;;;15.00;55.00;;;;;;5086296;28;20476;-61
2022/04/21 01:52:43;;;;;;;16.50;5.55;;;15.00;55.00;;;;;;5085963;28;21079;-61
2022/04/21 01:55:08;;;;;;;31.05;6.78;;;14.90;55.00;;;;;;5083627;28;20028;-61
2022/04/21 01:57:34;;;;;;;34.28;6.78;;;14.90;55.10;;;;;;5087615;28;20496;-61
2022/04/21 02:00:00;;;;;;;37.13;7.43;;;14.90;55.10;;;;;;5086369;28;20413;-61
2022/04/21 02:02:25;;;;;;;26.30;6.18;;;14.90;55.10;;;;;;5087139;28;20043;-61
2022/04/21 02:04:51;;;;;;;25.38;7.20;;;14.90;55.20;;;;;;5084176;28;20032;-61
2022/04/21 02:07:17;;;;;;;23.20;6.07;;;14.80;55.20;;;;;;5084808;28;20427;-61
2022/04/21 02:09:42;;;;;;;25.95;6.55;;;14.80;55.20;;;;;;5066545;28;20024;-61
2022/04/21 02:12:08;;;;;;;26.63;7.32;;;14.80;55.30;;;;;;5068271;28;20106;-61
2022/04/21 02:14:34;;;;;;;21.83;6.60;;;14.80;55.30;;;;;;5085695;28;20145;-62
2022/04/21 02:17:00;;;;;;;19.75;6.28;;;14.80;55.30;;;;;;5066733;28;20028;-61
2022/04/21 02:19:28;;;;;;;16.05;5.90;;;14.70;55.30;;;;;;5063402;28;20028;-60
2022/04/21 02:21:54;;;;;;;20.65;6.22;;;14.70;55.40;;;;;;5050201;28;20206;-61
2022/04/21 02:24:19;;;;;;;15.30;6.00;;;14.70;55.40;;;;;;5065348;28;20040;-61
2022/04/21 02:26:45;;;;;;;18.48;7.10;;;14.70;55.50;;;;;;5080724;28;20028;-61
2022/04/21 02:29:11;;;;;;;21.70;6.65;;;14.60;55.60;;;;;;5065091;28;20024;-60
2022/04/21 02:31:36;;;;;;;18.98;7.07;;;14.60;55.60;;;;;;5066327;28;20032;-61
2022/04/21 02:34:02;;;;;;;16.35;6.15;;;14.60;55.70;;;;;;5067806;28;20416;-61
2022/04/21 02:36:27;;;;;;;13.02;7.13;;;14.60;55.80;;;;;;5065983;28;20521;-61
2022/04/21 02:38:53;;;;;;;19.10;7.00;;;14.60;55.90;;;;;;5084913;28;20040;-61
2022/04/21 02:41:18;;;;;;;14.45;6.72;;;14.50;55.90;;;;;;5083446;28;20154;-63
2022/04/21 02:43:44;;;;;;;13.07;6.22;;;14.50;56.00;;;;;;5064559;28;20141;-61
2022/04/21 02:46:09;;;;;;;18.67;7.85;;;14.50;56.00;;;;;;5062526;28;20193;-61
2022/04/21 02:48:35;;;;;;;26.15;9.85;;;14.40;56.00;;;;;;5082197;28;20544;-61
2022/04/21 02:51:00;;;;;;;24.67;10.07;;;14.50;56.10;;;;;;5048720;28;20132;-60
2022/04/21 02:59:00;;;;;;;40.55;12.98;;;14.50;56.30;;;;;;5049645;28;20240;-60
2022/04/21 03:01:26;;;;;;;37.47;13.50;;;14.50;56.30;;;;;;5033791;28;20544;-61
2022/04/21 03:03:54;;;;;;;49.58;15.63;;;14.40;56.30;;;;;;5083487;28;20032;-61
2022/04/21 03:06:20;;;;;;;49.03;15.15;;;14.40;56.40;;;;;;5065982;28;20089;-61
2022/04/21 03:08:45;;;;;;;40.28;15.07;;;14.40;56.50;;;;;;5063422;28;20035;-61
2022/04/21 03:11:11;;;;;;;46.97;14.32;;;14.40;56.70;;;;;;5083143;28;20283;-61
2022/04/21 03:13:36;;;;;;;38.17;14.30;;;14.30;56.60;;;;;;5083035;28;20519;-61
2022/04/21 03:16:02;;;;;;;44.05;16.40;;;14.30;56.60;;;;;;5080917;28;20030;-61
2022/04/21 03:18:27;;;;;;;58.30;16.45;;;14.30;56.80;;;;;;5063831;28;20028;-61
2022/04/21 03:26:21;;;;;;;47.53;16.35;;;14.20;57.10;;;;;;5082350;28;20043;-61
2022/04/21 03:28:47;;;;;;;57.65;16.70;;;14.30;57.30;;;;;;5084158;28;20103;-61
2022/04/21 03:31:14;;;;;;;53.40;17.13;;;14.30;57.20;;;;;;5028870;28;20032;-60
2022/04/21 03:33:41;;;;;;;59.08;18.00;;;14.20;57.20;;;;;;5033750;28;20378;-61
2022/04/21 03:36:07;;;;;;;48.08;16.63;;;14.20;57.30;;;;;;5041415;28;20028;-60
2022/04/21 03:38:32;;;;;;;42.80;16.58;;;14.10;57.20;;;;;;5038367;28;20032;-60
2022/04/21 03:40:58;;;;;;;47.08;16.15;;;14.10;57.20;;;;;;5044313;28;20483;-60
2022/04/21 03:43:24;;;;;;;52.17;16.48;;;14.10;57.30;;;;;;5039058;28;20064;-60
2022/04/21 03:45:49;;;;;;;40.70;16.38;;;14.00;57.20;;;;;;5048804;28;20115;-60
2022/04/21 03:48:14;;;;;;;49.20;15.10;;;14.00;57.30;;;;;;5045700;28;20671;-61
2022/04/21 03:50:40;;;;;;;48.70;16.67;;;14.00;57.30;;;;;;5055024;28;20028;-60
2022/04/21 03:53:06;;;;;;;38.90;14.63;;;14.00;57.30;;;;;;5061799;28;20068;-61
2022/04/21 03:55:32;;;;;;;43.05;15.32;;;13.90;57.30;;;;;;5054026;28;20064;-61
2022/04/21 03:57:58;;;;;;;44.00;14.27;;;13.90;57.30;;;;;;5010611;28;20103;-60
2022/04/21 04:00:23;;;;;;;42.15;14.30;;;13.80;57.30;;;;;;5042266;28;20597;-60
2022/04/21 04:02:49;;;;;;;36.47;14.00;;;13.90;57.40;;;;;;5027135;28;20123;-60
2022/04/21 04:05:15;;;;;;;64.65;16.20;;;13.80;57.40;;;;;;5060719;28;20614;-60
2022/04/21 04:13:08;;;;;;;70.97;16.38;;;13.70;57.50;;;;;;5061043;28;20614;-60
2022/04/21 04:15:34;;;;;;;51.00;14.10;;;13.70;57.50;;;;;;5057145;28;20020;-61
2022/04/21 04:18:00;;;;;;;52.10;15.20;;;13.70;57.50;;;;;;5059939;28;20052;-61
2022/04/21 04:20:26;;;;;;;46.55;13.73;;;13.70;57.50;;;;;;5041193;28;20660;-60
2022/04/21 04:22:52;;;;;;;51.08;14.45;;;13.70;57.50;;;;;;5010224;28;20303;-60
2022/04/21 04:25:18;;;;;;;37.63;13.02;;;13.60;57.50;;;;;;5058851;28;20116;-61
2022/04/21 04:27:43;;;;;;;45.17;13.32;;;13.60;57.50;;;;;;5060824;28;20051;-60
2022/04/21 04:30:09;;;;;;;47.10;13.63;;;13.60;57.40;;;;;;5059686;28;20021;-60
2022/04/21 04:32:35;;;;;;;42.53;13.00;;;13.60;57.40;;;;;;5028647;28;20036;-61
2022/04/21 04:35:01;;;;;;;35.58;12.68;;;13.60;57.30;;;;;;5042971;28;20143;-61
2022/04/21 04:37:26;;;;;;;43.70;12.75;;;13.60;57.30;;;;;;5059293;28;20049;-61
2022/04/21 04:39:53;;;;;;;48.60;14.23;;;13.60;57.40;;;;;;5061196;28;20056;-60
2022/04/21 04:42:20;;;;;;;45.58;11.88;;;13.50;57.30;;;;;;5061489;28;20052;-61
2022/04/21 04:44:47;;;;;;;43.80;12.48;;;13.50;57.30;;;;;;5026466;28;20044;-61
2022/04/21 04:47:12;;;;;;;44.13;12.88;;;13.50;57.30;;;;;;5059659;28;20024;-61
2022/04/21 04:49:38;;;;;;;46.88;13.02;;;13.50;57.30;;;;;;5043183;28;20158;-60
2022/04/21 04:52:04;;;;;;;42.25;12.60;;;13.50;57.40;;;;;;5062319;28;20127;-62
2022/04/21 04:54:30;;;;;;;48.35;12.15;;;13.50;57.30;;;;;;5062233;28;20025;-60
2022/04/21 04:56:56;;;;;;;41.05;11.82;;;13.50;57.30;;;;;;5062213;28;20055;-61
2022/04/21 04:59:22;;;;;;;33.00;11.95;;;13.40;57.30;;;;;;5042068;28;20103;-61
2022/04/21 05:01:47;;;;;;;43.33;12.05;;;13.40;57.30;;;;;;5060281;28;20115;-61
2022/04/21 05:04:17;;;;;;;35.08;11.25;;;13.40;57.30;;;;;;5022891;28;20192;-61
2022/04/21 05:06:47;;;;;;;39.15;10.88;;;13.40;57.30;;;;;;5063969;28;20380;-61
2022/04/21 05:09:14;;;;;;;30.50;10.77;;;13.40;57.30;;;;;;5061580;28;20043;-61
2022/04/21 05:11:42;;;;;;;34.75;11.23;;;13.40;57.50;;;;;;5042919;28;20432;-61
2022/04/21 05:14:07;;;;;;;27.67;10.93;;;13.30;57.60;;;;;;5049273;28;20211;-61
2022/04/21 05:16:33;;;;;;;33.97;10.45;;;13.40;57.70;;;;;;5045210;28;20059;-61
2022/04/21 05:18:59;;;;;;;34.72;10.18;;;13.40;57.50;;;;;;5042750;28;20554;-61
2022/04/21 05:21:25;;;;;;;28.67;10.95;;;13.30;57.50;;;;;;5064395;28;20119;-61
2022/04/21 05:24:00;;;;;;;29.60;10.65;;;13.30;57.60;;;;;;5028352;28;20036;-61
2022/04/21 05:26:26;;;;;;;31.90;10.15;;;13.30;57.60;;;;;;5045774;28;20051;-61
2022/04/21 05:28:53;;;;;;;30.67;10.05;;;13.30;57.60;;;;;;5041743;28;20033;-61
2022/04/21 05:31:19;;;;;;;43.78;10.57;;;13.30;57.60;;;;;;5061202;28;20040;-61
2022/04/21 05:33:44;;;;;;;26.48;10.95;;;13.20;57.70;;;;;;5041528;28;20446;-60
2022/04/21 05:36:10;;;;;;;31.60;10.20;;;13.30;57.70;;;;;;5062667;28;20045;-61
2022/04/21 05:38:37;;;;;;;26.75;10.07;;;13.20;57.70;;;;;;5066038;28;20170;-61
2022/04/21 05:41:03;;;;;;;30.15;9.88;;;13.20;57.80;;;;;;5065643;28;20025;-61
2022/04/21 05:43:39;;;;;;;20.33;8.57;;;13.20;58.50;;;;;;5045692;28;20024;-61
2022/04/21 05:46:05;;;;;;;27.10;9.68;;;13.20;57.80;;;;;;5061056;28;20029;-61
2022/04/21 05:48:30;;;;;;;27.95;9.52;;;13.20;57.90;;;;;;5061949;28;20044;-62
2022/04/21 05:50:56;;;;;;;22.40;8.63;;;13.10;57.80;;;;;;5045188;28;20048;-61
2022/04/21 05:53:23;;;;;;;29.52;9.55;;;13.10;57.80;;;;;;5046045;28;20077;-61
2022/04/21 05:55:51;;;;;;;25.85;9.18;;;13.10;57.80;;;;;;5063730;28;20035;-61
2022/04/21 05:58:16;;;;;;;24.58;9.20;;;13.10;57.80;;;;;;5044647;28;20039;-61
2022/04/21 06:00:42;;;;;;;19.88;8.55;;;13.10;57.80;;;;;;5063588;28;20106;-61
2022/04/21 06:03:07;;;;;;;19.52;8.48;;;13.10;57.70;;;;;;5044542;28;20036;-60
2022/04/21 06:05:33;;;;;;;20.38;7.80;;;13.10;57.70;;;;;;5038452;28;20028;-61
2022/04/21 06:07:59;;;;;;;22.10;8.30;;;13.00;57.70;;;;;;5045467;28;20131;-61
2022/04/21 06:10:24;;;;;;;19.95;8.27;;;13.10;57.80;;;;;;5058996;28;20074;-61
2022/04/21 06:12:50;;;;;;;27.35;8.05;;;13.00;57.70;;;;;;5044807;28;20502;-61
2022/04/21 06:15:16;;;;;;;23.13;8.80;;;13.00;57.70;;;;;;5062019;28;20060;-61
2022/04/21 06:17:42;;;;;;;17.00;7.45;;;13.00;57.70;;;;;;5045117;28;20030;-60
2022/04/21 06:20:09;;;;;;;17.83;7.60;;;13.00;57.70;;;;;;5063422;28;20094;-60
2022/04/21 06:22:34;;;;;;;18.40;7.15;;;13.00;57.70;;;;;;5060679;28;20626;-61
2022/04/21 06:25:00;;;;;;;15.75;6.95;;;12.90;57.60;;;;;;5062595;28;20214;-61
2022/04/21 06:27:25;;;;;;;16.80;7.95;;;13.00;57.70;;;;;;5046244;28;20037;-61
2022/04/21 06:29:51;;;;;;;17.30;7.47;;;12.90;57.70;;;;;;5063829;28;20118;-61
2022/04/21 06:32:16;;;;;;;14.13;7.07;;;12.90;57.80;;;;;;5016418;28;20059;-61
2022/04/21 06:34:42;;;;;;;14.45;6.53;;;12.90;57.70;;;;;;5082129;28;20035;-61
2022/04/21 06:37:07;;;;;;;16.55;6.97;;;12.90;57.70;;;;;;5063247;28;20121;-61
2022/04/21 06:39:33;;;;;;;15.23;7.10;;;12.90;57.70;;;;;;5030886;28;20028;-61
2022/04/21 06:41:58;;;;;;;21.17;7.10;;;12.90;57.70;;;;;;5082605;28;20372;-60
2022/04/21 06:49:52;;;;;;;13.45;6.97;;;12.90;57.70;;;;;;5084829;28;20126;-62
2022/04/21 06:52:17;;;;;;;18.98;7.50;;;12.90;57.70;;;;;;5083817;28;20112;-61
2022/04/21 06:54:43;;;;;;;14.00;6.70;;;12.90;57.70;;;;;;5065365;28;20169;-61
2022/04/21 06:57:08;;;;;;;18.65;7.43;;;12.90;57.70;;;;;;5063121;28;20491;-61
2022/04/21 06:59:34;;;;;;;21.40;7.53;;;12.90;57.70;;;;;;5080719;28;20036;-60
2022/04/21 07:01:59;;;;;;;15.63;7.28;;;12.90;57.80;;;;;;5081476;28;20075;-60
2022/04/21 07:04:27;;;;;;;23.13;6.68;;;12.90;57.70;;;;;;5081641;28;20081;-61
2022/04/21 07:06:53;;;;;;;17.10;6.68;;;12.90;57.80;;;;;;5078122;28;20050;-61
2022/04/21 07:09:18;;;;;;;14.73;6.30;;;12.90;57.90;;;;;;5079487;28;20033;-61
2022/04/21 07:11:44;;;;;;;20.45;6.97;;;12.90;57.80;;;;;;5077460;28;20560;-61
2022/04/21 07:14:10;;;;;;;17.02;6.97;;;12.90;57.90;;;;;;5082003;28;20101;-61
2022/04/21 07:16:36;;;;;;;27.10;7.32;;;12.90;57.90;;;;;;5080435;28;20020;-61
2022/04/21 07:19:01;;;;;;;21.52;7.10;;;12.90;57.90;;;;;;5063889;28;20035;-60
2022/04/21 07:21:26;;;;;;;25.25;7.32;;;12.90;58.00;;;;;;5061723;28;20499;-60
2022/04/21 07:23:52;;;;;;;19.75;6.78;;;12.70;57.90;;;;;;5073048;28;20048;-61
2022/04/21 07:26:18;;;;;;;16.40;6.38;;;12.90;58.00;;;;;;5083712;28;20044;-61
2022/04/21 07:28:44;;;;;;;24.92;8.50;;;12.90;58.00;;;;;;5077533;28;20028;-60
2022/04/21 07:31:10;;;;;;;20.15;6.88;;;12.90;58.10;;;;;;5076365;28;20028;-60
2022/04/21 07:33:36;;;;;;;26.15;6.78;;;12.90;58.20;;;;;;5046642;28;20028;-61
2022/04/21 07:36:02;;;;;;;90.55;12.85;;;12.90;58.20;;;;;;5072916;28;20107;-61
2022/04/21 07:38:29;;;;;;;49.58;10.40;;;12.90;58.20;;;;;;5070966;28;20388;-61
2022/04/21 07:40:54;;;;;;;52.13;9.27;;;12.90;58.20;;;;;;5073944;28;20034;-60
2022/04/21 07:43:20;;;;;;;55.22;10.98;;;12.90;58.20;;;;;;5081460;28;20020;-61
2022/04/21 07:45:46;;;;;;;29.92;8.15;;;12.90;58.20;;;;;;5049548;28;20059;-62
2022/04/21 07:48:12;;;;;;;31.52;8.23;;;13.00;58.30;;;;;;5053852;28;20039;-60
2022/04/21 07:50:37;;;;;;;30.55;7.82;;;13.00;58.30;;;;;;5073540;28;20467;-61
2022/04/21 07:53:15;;;;;;;25.92;6.93;;;12.90;58.20;;;;;;5074496;28;20043;-61
2022/04/21 07:55:41;;;;;;;20.90;6.75;;;13.00;58.30;;;;;;5049391;28;20024;-60
2022/04/21 07:58:07;;;;;;;18.45;6.88;;;13.00;58.30;;;;;;5059112;28;20105;-61
2022/04/21 08:00:36;;;;;;;30.92;7.00;;;12.90;58.20;;;;;;5070124;28;20028;-60
2022/04/21 08:03:02;;;;;;;24.75;7.50;;;13.00;58.20;;;;;;5040229;28;20035;-61
2022/04/21 08:05:27;;;;;;;26.95;7.25;;;13.00;58.30;;;;;;5076978;28;20032;-61
2022/04/21 08:07:53;;;;;;;37.28;8.23;;;13.00;58.40;;;;;;5056579;28;20032;-61
2022/04/21 08:10:19;;;;;;;42.00;9.05;;;13.00;58.40;;;;;;5077805;28;20039;-61
2022/04/21 08:12:49;;;;;;;35.50;8.75;;;13.00;58.50;;;;;;5079799;28;20032;-61
2022/04/21 08:15:21;;;;;;;49.03;10.27;;;13.30;58.70;;;;;;5059539;28;20142;-61
2022/04/21 08:17:46;;;;;;;44.10;8.52;;;13.00;58.50;;;;;;5061761;28;20020;-60
2022/04/21 08:20:12;;;;;;;60.83;11.48;;;13.10;58.60;;;;;;5061036;28;20395;-61
2022/04/21 08:22:38;;;;;;;61.67;10.35;;;13.10;58.50;;;;;;5076333;28;20081;-60
2022/04/21 08:33:18;;;;;;;74.70;12.48;;;13.10;58.90;;;;;;5067107;28;20131;-61
2022/04/21 08:35:44;;;;;;;55.13;11.45;;;13.20;58.70;;;;;;5059192;28;20020;-61
2022/04/21 08:38:10;;;;;;;60.42;10.45;;;13.20;58.70;;;;;;5074141;28;20028;-61
2022/04/21 08:40:45;;;;;;;51.88;11.32;;;13.20;58.80;;;;;;5049309;28;20024;-61
2022/04/21 08:43:17;;;;;;;65.80;10.18;;;13.20;58.60;;;;;;5044422;28;20070;-61
2022/04/21 08:45:43;;;;;;;71.55;11.57;;;13.20;58.60;;;;;;5058825;28;20154;-61
2022/04/21 08:48:10;;;;;;;86.53;11.70;;;13.30;58.70;;;;;;5043629;28;20036;-62
2022/04/21 08:50:36;;;;;;;61.30;11.55;;;13.30;58.80;;;;;;5045258;28;20769;-61
2022/04/21 08:53:03;;;;;;;51.38;10.23;;;13.20;58.80;;;;;;5062192;28;20016;-61
2022/04/21 08:55:28;;;;;;;57.28;10.77;;;13.30;58.90;;;;;;5060626;28;20042;-61
2022/04/21 08:57:54;;;;;;;78.18;10.98;;;13.30;58.90;;;;;;5083787;28;20044;-61
2022/04/21 09:00:20;;;;;;;71.80;11.20;;;13.30;59.00;;;;;;5073286;28;20198;-60
2022/04/21 09:02:47;;;;;;;66.45;11.57;;;13.30;59.10;;;;;;5081986;28;20024;-61
2022/04/21 09:05:12;;;;;;;86.35;12.88;;;13.30;59.10;;;;;;5079587;28;21245;-61
2022/04/21 09:07:47;;;;;;;91.95;13.15;;;13.30;59.50;;;;;;5078993;28;20039;-61
2022/04/21 09:10:13;;;;;;;95.57;13.73;;;13.30;59.30;;;;;;5057821;28;20041;-61
2022/04/21 09:12:46;;;;;;;84.20;13.43;;;13.40;59.50;;;;;;5045825;28;20070;-60
2022/04/21 09:15:14;;;;;;;95.63;14.02;;;13.40;59.70;;;;;;5055652;28;20044;-61
2022/04/21 09:17:53;;;;;;;85.88;15.20;;;13.40;59.60;;;;;;5049070;28;20420;-61
2022/04/21 09:20:20;;;;;;;113.85;14.57;;;13.40;59.90;;;;;;5081382;28;20024;-60
2022/04/21 09:22:52;;;;;;;92.35;15.70;;;13.40;60.10;;;;;;5078899;28;20356;-62
2022/04/21 09:25:20;;;;;;;131.77;18.83;;;13.40;60.20;;;;;;5055195;28;20031;-61
2022/04/21 09:27:48;;;;;;;120.30;17.33;;;13.40;60.00;;;;;;5068746;28;20020;-60
2022/04/21 09:30:13;;;;;;;114.90;17.40;;;13.40;60.10;;;;;;5081810;28;20353;-61
2022/04/21 09:32:53;;;;;;;107.38;14.82;;;13.50;59.90;;;;;;5065461;28;20468;-61
2022/04/21 09:35:19;;;;;;;101.20;14.80;;;13.50;59.80;;;;;;5084346;28;20464;-61
2022/04/21 09:37:49;;;;;;;101.10;15.27;;;13.70;60.00;;;;;;5066357;28;20048;-60
2022/04/21 09:40:16;;;;;;;110.18;17.13;;;13.50;60.00;;;;;;5063982;28;20071;-61
2022/04/21 09:42:42;;;;;;;133.82;18.23;;;13.60;60.30;;;;;;5074004;28;20367;-61
2022/04/21 09:47:54;;;;;;;96.72;16.05;;;13.60;60.10;;;;;;5050926;28;20077;-60
2022/04/21 09:50:19;;;;;;;164.05;20.02;;;13.60;60.30;;;;;;5081956;28;20043;-61
2022/04/21 09:52:49;;;;;;;128.45;19.67;;;13.70;60.40;;;;;;5048618;28;20020;-61
2022/04/21 09:55:27;;;;;;;107.90;16.80;;;13.70;60.60;;;;;;5078346;28;20103;-60
2022/04/21 09:58:06;;;;;;;99.03;16.00;;;13.70;60.10;;;;;;5080225;28;20024;-60
2022/04/21 10:00:32;;;;;;;111.55;16.95;;;13.80;60.10;;;;;;5057600;28;20037;-61
2022/04/21 10:02:59;;;;;;;127.45;18.88;;;13.80;60.20;;;;;;5061402;28;20479;-61
2022/04/21 10:05:25;;;;;;;116.50;16.88;;;13.80;60.30;;;;;;5051033;28;20037;-61
2022/04/21 10:07:51;;;;;;;99.97;16.92;;;13.80;60.40;;;;;;5038315;28;20019;-61
2022/04/21 10:10:17;;;;;;;112.32;17.35;;;13.80;60.40;;;;;;5074681;28;20036;-60
2022/04/21 10:12:42;;;;;;;103.88;18.20;;;13.90;61.40;;;;;;5026427;28;20452;-60
2022/04/21 10:15:08;;;;;;;121.65;17.88;;;13.90;60.60;;;;;;5060250;28;20135;-60
2022/04/21 10:17:34;;;;;;;103.40;17.88;;;13.90;60.60;;;;;;5053685;28;20028;-60
2022/04/21 10:20:00;;;;;;;126.03;17.60;;;14.00;60.80;;;;;;5074974;28;20039;-61
2022/04/21 10:22:26;;;;;;;98.07;18.42;;;14.00;60.70;;;;;;5059090;28;20669;-60
2022/04/21 10:24:55;;;;;;;85.72;15.30;;;14.10;60.70;;;;;;5043420;28;20603;-60
2022/04/21 10:27:40;;;;;;;118.32;16.80;;;14.10;60.90;;;;;;5077943;28;20031;-60
2022/04/21 10:30:22;;;;;;;132.52;19.20;;;14.10;60.90;;;;;;5073317;28;20036;-60
2022/04/21 10:32:52;;;;;;;97.88;17.70;;;14.10;61.00;;;;;;5025259;28;20079;-61
2022/04/21 10:35:26;;;;;;;106.75;15.48;;;14.20;61.00;;;;;;5047261;28;20025;-61
2022/04/21 10:38:22;;;;;;;120.15;17.50;;;14.20;60.60;;;;;;5061035;28;20431;-64
2022/04/21 10:40:58;;;;;;;93.30;16.35;;;14.30;60.70;;;;;;5051549;28;20027;-61
2022/04/21 10:43:24;;;;;;;105.57;16.55;;;14.30;61.00;;;;;;5053259;28;20052;-61
2022/04/21 10:46:05;;;;;;;99.00;17.15;;;14.30;61.00;;;;;;5026700;28;20066;-61
2022/04/21 10:48:41;;;;;;;110.00;15.20;;;14.30;61.00;;;;;;5038081;28;20036;-61
2022/04/21 10:51:06;;;;;;;86.78;16.67;;;14.40;60.90;;;;;;5072840;28;20067;-61
2022/04/21 11:00:03;;;;;;;82.78;13.82;;;14.60;60.80;;;;;;5024556;28;20121;-61
2022/04/21 11:02:42;;;;;;;84.50;14.82;;;14.60;60.60;;;;;;5034008;28;20431;-60
2022/04/21 11:05:22;;;;;;;94.55;15.50;;;14.70;60.50;;;;;;5045820;28;20038;-60
2022/04/21 11:07:52;;;;;;;92.05;14.82;;;14.70;60.40;;;;;;5071643;28;20546;-62
2022/04/21 11:10:38;;;;;;;94.82;14.00;;;14.80;60.30;;;;;;5068190;28;20568;-60
2022/04/21 11:13:08;;;;;;;103.70;15.95;;;14.90;60.30;;;;;;5068714;28;20028;-61
2022/04/21 11:15:50;;;;;;;107.28;15.52;;;14.90;60.20;;;;;;5036485;28;20034;-61
2022/04/21 11:18:19;;;;;;;88.32;14.57;;;15.00;60.20;;;;;;5055756;28;20587;-61
2022/04/21 11:20:48;;;;;;;90.03;14.73;;;15.00;60.00;;;;;;5062087;28;21504;-63
2022/04/21 11:23:30;;;;;;;100.10;16.20;;;15.10;60.00;;;;;;5050435;28;20209;-65
2022/04/21 11:26:05;;;;;;;77.35;13.88;;;15.20;59.90;;;;;;5064514;28;20476;-61
2022/04/21 11:28:31;;;;;;;115.97;15.65;;;15.30;59.70;;;;;;5050658;28;20123;-60
2022/04/21 11:31:01;;;;;;;94.82;14.77;;;15.40;59.80;;;;;;5030944;28;20551;-60
2022/04/21 11:33:26;;;;;;;107.97;14.82;;;15.40;59.60;;;;;;5071068;28;20639;-62
2022/04/21 11:36:04;;;;;;;93.85;14.07;;;15.50;59.50;;;;;;5062621;28;20020;-61
2022/04/21 11:38:32;;;;;;;84.50;13.43;;;15.60;59.50;;;;;;5037624;28;20028;-61
2022/04/21 11:41:02;;;;;;;93.07;13.93;;;15.70;59.40;;;;;;5049654;28;20020;-61
2022/04/21 11:43:27;;;;;;;77.93;13.93;;;15.70;59.20;;;;;;5055768;28;20178;-61
2022/04/21 11:46:00;;;;;;;89.38;14.82;;;15.80;59.10;;;;;;5049304;28;20460;-61
2022/04/21 11:48:42;;;;;;;91.70;14.23;;;15.90;58.90;;;;;;5049042;28;20071;-61
2022/04/21 11:51:11;;;;;;;71.25;12.50;;;16.00;58.70;;;;;;5055482;28;20036;-61
2022/04/21 11:53:40;;;;;;;97.43;12.63;;;16.10;58.40;;;;;;5040459;28;20522;-60
2022/04/21 11:56:06;;;;;;;95.22;15.23;;;16.10;58.50;;;;;;5035345;28;20186;-61
2022/04/21 11:58:35;;;;;;;80.53;14.45;;;16.20;58.40;;;;;;5044331;28;20667;-61
2022/04/21 12:06:37;;;;;;;98.38;15.20;;;16.40;58.00;;;;;;5036101;28;20063;-61
2022/04/21 12:09:02;;;;;;;93.70;13.52;;;16.50;58.00;;;;;;5047126;28;20048;-61
2022/04/21 12:11:28;;;;;;;99.30;14.50;;;16.60;57.80;;;;;;5067680;28;20031;-62
2022/04/21 12:13:54;;;;;;;110.45;16.60;;;16.70;57.70;;;;;;5051938;28;20039;-61
2022/04/21 12:16:53;;;;;;;92.50;13.90;;;16.80;57.90;;;;;;5076883;28;20024;-61
2022/04/21 12:19:41;;;;;;;87.13;12.32;;;16.90;57.60;;;;;;5000990;28;20040;-61
2022/04/21 12:22:16;;;;;;;81.85;12.13;;;17.00;57.50;;;;;;5044174;28;20036;-61
2022/04/21 12:24:49;;;;;;;81.43;12.90;;;17.10;57.30;;;;;;5057024;28;20020;-61
2022/04/21 12:27:18;;;;;;;79.40;12.55;;;17.20;57.20;;;;;;5038865;28;20047;-61
2022/04/21 12:29:54;;;;;;;83.70;12.05;;;17.30;57.20;;;;;;5047918;28;20045;-61
2022/04/21 12:32:25;;;;;;;92.07;13.68;;;17.40;56.90;;;;;;5045621;28;20478;-61
2022/04/21 12:34:51;;;;;;;76.10;12.32;;;17.50;56.70;;;;;;5049138;28;20047;-62
2022/04/21 12:37:27;;;;;;;71.25;11.45;;;17.60;56.50;;;;;;5058217;28;20062;-61
2022/04/21 12:39:54;;;;;;;75.88;12.10;;;17.70;56.30;;;;;;5054610;28;20062;-61
2022/04/21 12:42:19;;;;;;;69.53;12.38;;;17.80;56.30;;;;;;5075451;28;20013;-61
2022/04/21 12:44:45;;;;;;;75.85;12.00;;;17.80;56.20;;;;;;5051555;28;20042;-62
2022/04/21 12:47:15;;;;;;;80.03;12.50;;;17.90;56.20;;;;;;5059430;28;20058;-61
2022/04/21 12:49:58;;;;;;;82.40;11.85;;;18.00;56.30;;;;;;5062508;28;20081;-61
2022/04/21 12:52:37;;;;;;;64.40;11.50;;;18.10;56.20;;;;;;5068376;28;20487;-62
2022/04/21 12:55:10;;;;;;;76.05;12.43;;;18.20;56.10;;;;;;5049451;28;20779;-62
2022/04/21 12:57:37;;;;;;;65.88;12.32;;;18.20;55.80;;;;;;5034778;28;20068;-62
2022/04/21 13:00:04;;;;;;;77.70;12.40;;;18.30;55.80;;;;;;5037624;28;20150;-61
2022/04/21 13:02:30;;;;;;;79.47;11.70;;;18.30;55.80;;;;;;5072606;28;20016;-61
2022/04/21 13:04:57;;;;;;;76.93;11.93;;;18.40;55.80;;;;;;5074946;28;20097;-61
2022/04/21 13:07:24;;;;;;;79.45;12.07;;;18.50;55.80;;;;;;5069343;28;21448;-61
2022/04/21 13:09:50;;;;;;;72.88;12.75;;;18.50;55.70;;;;;;5051632;28;20047;-60
2022/04/21 13:12:16;;;;;;;95.40;13.30;;;18.60;55.70;;;;;;5035154;28;20031;-60
2022/04/21 13:14:41;;;;;;;71.28;12.75;;;18.70;55.60;;;;;;5057928;28;20109;-60
2022/04/21 13:17:07;;;;;;;92.68;13.68;;;18.80;55.30;;;;;;5054494;28;20029;-60
2022/04/21 13:19:33;;;;;;;74.60;11.90;;;18.80;55.20;;;;;;5061300;28;20078;-60
2022/04/21 13:21:59;;;;;;;62.47;11.18;;;18.90;55.10;;;;;;5065700;28;20032;-60
2022/04/21 13:24:25;;;;;;;64.15;12.02;;;18.90;54.90;;;;;;5060622;28;20460;-63
2022/04/21 13:26:54;;;;;;;58.92;11.15;;;19.00;54.70;;;;;;5053714;28;20094;-61